Time;durP1;ratioP1;P1;durP2;ratioP2;P2;SDS_P1;SDS_P2;PMS_P1;PMS_P2;Temp;Humidity;BMP_temperature;BMP_pressure;BME280_temperature;BME280_humidity;BME280_pressure;Samples;Min_cycle;Max_cycle;Signal;HPM_P1;HPM_P2
2022/08/29 00:00:15;;;;;;;5.00;4.80;;;;;;;13.97;81.95;101804.63;6052861;23;20021;-75
2022/08/29 00:02:49;;;;;;;4.88;4.68;;;;;;;13.81;81.99;101787.81;6056651;23;20014;-75
2022/08/29 00:05:18;;;;;;;6.45;6.05;;;;;;;14.05;81.42;101834.16;6005969;23;20038;-75
2022/08/29 00:07:50;;;;;;;5.70;5.00;;;;;;;14.03;82.50;101843.06;6086511;23;20649;-75
2022/08/29 00:10:16;;;;;;;6.38;6.03;;;;;;;13.51;82.75;101762.84;6053930;23;20022;-75
2022/08/29 00:12:43;;;;;;;5.15;4.75;;;;;;;13.79;82.77;101789.69;6085120;23;20012;-75
2022/08/29 00:15:11;;;;;;;4.88;4.57;;;;;;;13.89;83.81;101809.41;6058711;23;20014;-74
2022/08/29 00:17:38;;;;;;;5.10;4.80;;;;;;;13.57;83.91;101759.09;6076657;23;20463;-75
2022/08/29 00:20:07;;;;;;;8.43;5.00;;;;;;;13.99;83.79;101830.94;6031223;23;20037;-75
2022/08/29 00:22:34;;;;;;;5.97;5.68;;;;;;;13.99;84.08;101829.16;6033073;23;20386;-74
2022/08/29 00:25:03;;;;;;;5.28;4.97;;;;;;;12.92;84.32;101661.88;6027604;23;20574;-75
2022/08/29 00:27:31;;;;;;;6.30;5.63;;;;;;;13.71;84.04;101785.66;6085646;23;20029;-75
2022/08/29 00:29:57;;;;;;;5.22;4.93;;;;;;;13.65;84.44;101787.72;6065992;23;20081;-74
2022/08/29 00:32:24;;;;;;;6.82;6.38;;;;;;;13.22;84.75;101740.47;6072207;23;20014;-74
2022/08/29 00:34:51;;;;;;;5.50;5.10;;;;;;;13.59;84.40;101801.19;6042454;23;20026;-75
2022/08/29 00:37:18;;;;;;;6.50;6.13;;;;;;;13.57;85.18;101801.28;6050918;23;20019;-75
2022/08/29 00:39:44;;;;;;;5.45;5.15;;;;;;;13.34;85.30;101783.88;6060941;23;20105;-75
2022/08/29 00:42:10;;;;;;;5.28;4.97;;;;;;;13.50;85.27;101807.75;6081662;23;20321;-75
2022/08/29 00:44:37;;;;;;;5.45;5.07;;;;;;;13.61;86.56;101826.59;6026516;23;20770;-74
2022/08/29 00:47:09;;;;;;;5.18;4.88;;;;;;;13.39;87.12;101808.28;6071629;23;20026;-74
2022/08/29 00:49:38;;;;;;;5.23;4.87;;;;;;;13.53;87.00;101826.06;6005851;23;20033;-74
2022/08/29 00:52:17;;;;;;;5.35;5.05;;;;;;;13.43;87.22;101825.66;6092151;23;20034;-75
2022/08/29 00:54:48;;;;;;;4.90;4.70;;;;;;;13.11;88.69;101784.88;6065809;23;20028;-74
2022/08/29 00:57:18;;;;;;;5.85;5.55;;;;;;;13.31;88.98;101824.44;6059128;23;20018;-75
2022/08/29 00:59:46;;;;;;;6.68;5.15;;;;;;;13.10;89.81;101799.84;6032619;23;20061;-75
2022/08/29 01:02:13;;;;;;;5.68;5.32;;;;;;;13.18;89.47;101818.81;6056424;23;20226;-75
2022/08/29 01:04:40;;;;;;;6.60;5.15;;;;;;;12.69;90.09;101757.78;6055365;23;20014;-75
2022/08/29 01:07:08;;;;;;;5.13;4.80;;;;;;;12.98;90.88;101797.78;6089710;23;20081;-74
2022/08/29 01:09:37;;;;;;;4.97;4.63;;;;;;;13.08;90.82;101820.16;6033515;23;20014;-75
2022/08/29 01:12:17;;;;;;;4.68;4.45;;;;;;;12.65;91.71;101753.56;6034197;23;20068;-75
2022/08/29 01:14:55;;;;;;;4.95;4.70;;;;;;;12.90;92.54;101807.81;6083990;23;20022;-74
2022/08/29 01:17:33;;;;;;;6.28;5.97;;;;;;;12.70;92.71;101779.69;6053347;23;20057;-75
2022/08/29 01:20:13;;;;;;;4.78;4.57;;;;;;;12.97;92.51;101835.59;6066473;23;20006;-73
2022/08/29 01:22:59;;;;;;;4.95;4.65;;;;;;;12.91;92.75;101843.75;6036393;23;20034;-73
2022/08/29 01:25:31;;;;;;;6.28;5.97;;;;;;;12.40;92.22;101768.72;6072368;23;20022;-74
2022/08/29 01:28:22;;;;;;;5.25;4.95;;;;;;;12.59;92.54;101814.41;6058539;23;20019;-74
2022/08/29 01:31:09;;;;;;;5.00;4.60;;;;;;;12.71;93.04;101837.59;6080365;23;20038;-74
2022/08/29 01:33:52;;;;;;;4.80;4.60;;;;;;;12.66;93.89;101843.97;6050422;23;20034;-74
2022/08/29 01:36:22;;;;;;;6.30;5.95;;;;;;;12.60;94.30;101849.50;6019657;23;20034;-73
2022/08/29 01:38:48;;;;;;;5.00;4.70;;;;;;;12.42;94.39;101830.91;6044957;23;20021;-73
2022/08/29 01:41:19;;;;;;;6.05;5.75;;;;;;;12.52;95.12;101852.44;6011566;23;20722;-75
2022/08/29 01:43:50;;;;;;;4.90;4.60;;;;;;;12.48;95.15;101845.59;6075448;23;20030;-73
2022/08/29 01:46:21;;;;;;;6.00;5.70;;;;;;;12.31;95.80;101835.78;6045968;23;20459;-73
2022/08/29 01:48:48;;;;;;;4.43;4.22;;;;;;;11.67;96.29;101747.97;6080946;23;20041;-74
2022/08/29 01:51:16;;;;;;;5.18;4.88;;;;;;;12.37;96.11;101862.69;6050491;23;20104;-74
2022/08/29 01:53:43;;;;;;;5.03;4.72;;;;;;;12.36;96.24;101857.50;6082428;23;20101;-75
2022/08/29 01:56:12;;;;;;;5.05;4.75;;;;;;;12.32;96.67;101854.13;6022524;23;20045;-73
2022/08/29 01:58:38;;;;;;;5.00;4.70;;;;;;;11.82;97.14;101774.56;6081728;23;20018;-74
2022/08/29 02:01:05;;;;;;;4.75;4.50;;;;;;;11.36;97.95;101699.22;6024699;23;20027;-74
2022/08/29 02:03:32;;;;;;;5.63;5.32;;;;;;;12.08;99.66;101821.75;6046210;23;20612;-74
2022/08/29 02:06:00;;;;;;;5.13;4.82;;;;;;;11.84;99.45;101799.91;5985213;23;20008;-74
2022/08/29 02:08:27;;;;;;;6.32;5.97;;;;;;;11.42;99.41;101728.84;6031641;23;20019;-74
2022/08/29 02:10:54;;;;;;;4.88;4.68;;;;;;;12.17;98.77;101846.88;6008137;23;20031;-74
2022/08/29 02:13:23;;;;;;;6.70;6.15;;;;;;;11.88;99.28;101814.63;6032593;23;20022;-74
2022/08/29 02:15:50;;;;;;;5.05;4.75;;;;;;;11.98;99.94;101826.53;6003302;23;20018;-74
2022/08/29 02:18:17;;;;;;;6.47;6.15;;;;;;;11.92;100.00;101818.03;6051453;23;20029;-74
2022/08/29 02:20:44;;;;;;;5.63;5.32;;;;;;;12.11;100.00;101853.22;6028752;23;20074;-74
2022/08/29 02:23:11;;;;;;;6.50;6.20;;;;;;;12.09;100.00;101854.22;6040126;23;20028;-73
2022/08/29 02:25:56;;;;;;;6.78;5.50;;;;;;;11.92;100.00;101821.53;6026211;23;20405;-74
2022/08/29 02:28:22;;;;;;;6.30;5.93;;;;;;;11.91;100.00;101824.22;6061065;23;20021;-74
2022/08/29 02:30:51;;;;;;;5.10;4.80;;;;;;;12.08;100.00;101857.75;6032627;23;20010;-73
2022/08/29 02:33:23;;;;;;;6.25;5.95;;;;;;;12.05;100.00;101852.63;6048386;23;20050;-74
2022/08/29 02:35:50;;;;;;;5.00;4.70;;;;;;;12.03;100.00;101854.44;6003264;23;20020;-73
2022/08/29 02:38:17;;;;;;;6.25;5.88;;;;;;;11.94;100.00;101827.56;6037088;23;20305;-74
2022/08/29 02:40:44;;;;;;;4.70;4.50;;;;;;;12.00;100.00;101855.41;6025453;23;20037;-73
2022/08/29 02:43:11;;;;;;;4.72;4.53;;;;;;;11.69;100.00;101800.53;6052863;23;20050;-74
2022/08/29 02:45:40;;;;;;;4.80;4.60;;;;;;;11.87;100.00;101825.25;5989185;23;20133;-74
2022/08/29 02:48:07;;;;;;;5.05;4.65;;;;;;;11.95;100.00;101842.47;6040232;23;20026;-75
2022/08/29 02:50:34;;;;;;;5.20;4.90;;;;;;;11.89;100.00;101845.34;6014722;23;20038;-75
2022/08/29 02:53:00;;;;;;;5.22;4.85;;;;;;;11.82;100.00;101840.34;6043884;23;20450;-74
2022/08/29 02:55:27;;;;;;;5.72;5.43;;;;;;;11.66;100.00;101811.16;5983201;23;20039;-75
2022/08/29 02:57:53;;;;;;;5.40;5.10;;;;;;;11.24;100.00;101757.53;6040536;23;20061;-74
2022/08/29 03:00:24;;;;;;;5.78;5.47;;;;;;;11.74;100.00;101835.38;6037406;23;20043;-74
2022/08/29 03:02:51;;;;;;;4.85;4.57;;;;;;;11.71;100.00;101833.72;6013727;23;20448;-74
2022/08/29 03:05:22;;;;;;;6.10;5.72;;;;;;;11.43;100.00;101791.88;6068492;23;20018;-75
2022/08/29 03:07:48;;;;;;;5.10;4.70;;;;;;;10.89;100.00;101699.31;6024472;23;20663;-74
2022/08/29 03:10:16;;;;;;;5.95;5.65;;;;;;;11.62;100.00;101835.84;6001526;23;20464;-74
2022/08/29 03:12:43;;;;;;;8.07;4.70;;;;;;;11.06;100.00;101750.34;6082738;23;20490;-75
2022/08/29 03:15:11;;;;;;;4.57;4.35;;;;;;;11.01;100.00;101726.88;6055490;23;20030;-73
2022/08/29 03:17:38;;;;;;;4.80;4.50;;;;;;;11.54;100.00;101821.22;6056546;23;20729;-73
2022/08/29 03:20:06;;;;;;;4.85;4.65;;;;;;;11.54;100.00;101815.94;6032393;23;20032;-73
2022/08/29 03:22:33;;;;;;;4.85;4.50;;;;;;;11.56;100.00;101818.53;6077563;23;20083;-74
2022/08/29 03:25:01;;;;;;;4.72;4.53;;;;;;;11.23;100.00;101754.97;6055372;23;20094;-74
2022/08/29 03:27:31;;;;;;;5.65;5.35;;;;;;;11.02;100.00;101733.84;6077352;23;20534;-74
2022/08/29 03:29:58;;;;;;;5.00;4.60;;;;;;;10.72;100.00;101683.31;6026678;23;20022;-73
2022/08/29 03:32:25;;;;;;;5.90;5.60;;;;;;;11.20;100.00;101736.69;6082158;23;20032;-74
2022/08/29 03:34:53;;;;;;;5.00;4.70;;;;;;;11.32;100.00;101760.72;6024534;23;20025;-74
2022/08/29 03:37:19;;;;;;;5.70;5.47;;;;;;;10.82;100.00;101666.28;6049985;23;20467;-74
2022/08/29 03:39:46;;;;;;;5.20;4.70;;;;;;;11.50;100.00;101776.69;6054120;23;20089;-74
2022/08/29 03:42:12;;;;;;;4.95;4.75;;;;;;;11.51;100.00;101773.16;6021894;23;20047;-73
2022/08/29 03:44:40;;;;;;;5.38;4.97;;;;;;;11.26;100.00;101749.59;6069312;23;20026;-73
2022/08/29 03:47:07;;;;;;;4.50;4.30;;;;;;;11.05;100.00;101696.97;6026641;23;20027;-73
2022/08/29 03:49:33;;;;;;;5.40;5.10;;;;;;;11.63;100.00;101790.25;6022987;23;20019;-73
2022/08/29 03:52:00;;;;;;;4.40;4.20;;;;;;;11.58;100.00;101793.88;6080885;23;20022;-73
2022/08/29 03:54:27;;;;;;;5.85;5.55;;;;;;;11.16;100.00;101720.19;6048712;23;20476;-74
2022/08/29 03:56:55;;;;;;;4.82;4.53;;;;;;;11.46;100.00;101769.84;6055453;23;20581;-74
2022/08/29 03:59:21;;;;;;;4.63;4.43;;;;;;;11.09;100.00;101718.72;6074673;23;20093;-74
2022/08/29 04:01:49;;;;;;;5.30;5.00;;;;;;;11.39;100.00;101756.09;6051011;23;20034;-74
2022/08/29 04:07:05;;;;;;;4.53;4.32;;;;;;;11.47;100.00;101782.94;6051479;23;20061;-75
2022/08/29 04:09:31;;;;;;;5.78;5.38;;;;;;;11.47;100.00;101777.69;6078531;23;20033;-74
2022/08/29 04:11:58;;;;;;;4.60;4.40;;;;;;;11.12;100.00;101729.09;6056719;23;20018;-74
2022/08/29 04:14:25;;;;;;;6.05;5.60;;;;;;;11.34;100.00;101786.94;6065665;23;20029;-74
2022/08/29 04:16:51;;;;;;;4.47;4.28;;;;;;;11.47;100.00;101782.94;6055174;23;20320;-74
2022/08/29 04:19:19;;;;;;;6.03;5.72;;;;;;;11.03;100.00;101708.44;6076490;23;20463;-75
2022/08/29 04:21:47;;;;;;;4.82;4.53;;;;;;;11.30;100.00;101764.31;6050965;23;20313;-74
2022/08/29 04:24:15;;;;;;;5.82;5.53;;;;;;;11.05;100.00;101728.47;6079201;23;20002;-74
2022/08/29 04:26:41;;;;;;;4.63;4.43;;;;;;;10.93;100.00;101719.28;6043461;23;20333;-73
2022/08/29 04:29:10;;;;;;;4.70;4.35;;;;;;;10.62;100.00;101674.06;6066133;23;20026;-73
2022/08/29 04:31:37;;;;;;;4.80;4.60;;;;;;;11.40;100.00;101801.63;6027482;23;20110;-74
2022/08/29 04:34:06;;;;;;;4.53;4.32;;;;;;;11.17;100.00;101771.81;6078603;23;20155;-73
2022/08/29 04:36:34;;;;;;;5.57;5.18;;;;;;;11.38;100.00;101797.31;6033287;23;20585;-74
2022/08/29 04:39:01;;;;;;;4.30;4.10;;;;;;;11.09;100.00;101758.97;6080138;23;20149;-73
2022/08/29 04:41:27;;;;;;;6.05;5.65;;;;;;;11.32;100.00;101802.75;6039070;23;20018;-74
2022/08/29 04:43:54;;;;;;;4.57;4.38;;;;;;;10.58;100.00;101689.94;6076844;23;20010;-74
2022/08/29 04:46:20;;;;;;;6.22;5.85;;;;;;;11.05;100.00;101770.50;6047247;23;20589;-74
2022/08/29 04:48:50;;;;;;;4.70;4.50;;;;;;;10.82;100.00;101729.31;6079428;23;20109;-75
2022/08/29 04:51:17;;;;;;;5.75;5.45;;;;;;;11.01;100.00;101749.69;6028805;23;20042;-76
2022/08/29 04:53:43;;;;;;;4.63;4.43;;;;;;;10.95;100.00;101743.72;6023926;23;20511;-75
2022/08/29 04:56:11;;;;;;;4.75;4.45;;;;;;;10.93;100.00;101735.03;6061426;23;20466;-75
2022/08/29 04:58:40;;;;;;;5.13;4.63;;;;;;;11.21;100.00;101777.84;6032945;23;20078;-76
2022/08/29 05:01:14;;;;;;;5.60;5.25;;;;;;;11.50;100.00;101818.75;6069083;23;20087;-75
2022/08/29 05:03:41;;;;;;;5.00;4.60;;;;;;;11.56;100.00;101810.63;6018384;23;20014;-76
2022/08/29 05:06:11;;;;;;;4.47;4.28;;;;;;;11.27;100.00;101759.19;6069095;23;20029;-75
2022/08/29 05:08:39;;;;;;;5.28;4.88;;;;;;;11.51;100.00;101799.47;6047967;23;20035;-76
2022/08/29 05:11:10;;;;;;;4.45;4.25;;;;;;;11.68;100.00;101811.94;6062635;23;20028;-75
2022/08/29 05:13:37;;;;;;;4.63;4.43;;;;;;;11.73;100.00;101810.84;6010895;23;20006;-75
2022/08/29 05:16:05;;;;;;;4.30;4.10;;;;;;;11.69;100.00;101797.91;6062302;23;20034;-76
2022/08/29 05:18:35;;;;;;;4.93;4.63;;;;;;;11.45;100.00;101755.00;6009270;23;20003;-75
2022/08/29 05:21:02;;;;;;;4.53;4.32;;;;;;;11.55;100.00;101764.25;6087069;23;20029;-75
2022/08/29 05:23:29;;;;;;;5.78;5.45;;;;;;;11.91;100.00;101814.56;6046573;23;20035;-76
2022/08/29 05:26:02;;;;;;;4.45;4.25;;;;;;;11.50;100.00;101748.63;6079584;23;20014;-75
2022/08/29 05:28:31;;;;;;;5.70;5.35;;;;;;;12.05;100.00;101828.94;6009916;23;20047;-75
2022/08/29 05:30:58;;;;;;;4.50;4.30;;;;;;;11.90;100.00;101783.91;6084091;23;20089;-75
2022/08/29 05:33:26;;;;;;;6.03;5.72;;;;;;;12.15;100.00;101803.97;6034457;23;20556;-75
2022/08/29 05:35:57;;;;;;;5.22;4.68;;;;;;;12.42;100.00;101820.38;6084162;23;20038;-75
2022/08/29 05:38:23;;;;;;;6.38;5.97;;;;;;;12.45;100.00;101808.84;6054794;23;20087;-76
2022/08/29 05:40:49;;;;;;;4.50;4.30;;;;;;;12.14;100.00;101745.19;6002395;23;20018;-75
2022/08/29 05:43:16;;;;;;;5.95;5.65;;;;;;;12.49;100.00;101790.25;6084708;23;20030;-75
2022/08/29 05:45:43;;;;;;;5.47;4.97;;;;;;;12.35;100.00;101745.22;6045181;23;20088;-76
2022/08/29 05:48:09;;;;;;;4.88;4.60;;;;;;;11.63;100.00;101624.59;6081859;23;20033;-75
2022/08/29 05:50:41;;;;;;;5.03;4.80;;;;;;;12.62;100.00;101744.94;6054336;23;20091;-75
2022/08/29 05:53:09;;;;;;;5.20;4.90;;;;;;;13.29;100.00;101833.28;6086584;23;20611;-76
2022/08/29 05:55:42;;;;;;;5.70;5.20;;;;;;;13.50;100.00;101836.78;6028272;23;20026;-76
2022/08/29 05:58:10;;;;;;;4.97;4.50;;;;;;;13.29;100.00;101783.19;6080963;23;20070;-75
2022/08/29 06:00:43;;;;;;;5.40;5.00;;;;;;;13.84;100.00;101840.47;6028726;23;20015;-76
2022/08/29 06:03:10;;;;;;;5.18;4.88;;;;;;;13.83;99.13;101805.31;6081231;23;20014;-74
2022/08/29 06:05:38;;;;;;;9.88;4.90;;;;;;;13.74;98.44;101769.66;6037168;23;20022;-75
2022/08/29 06:08:05;;;;;;;4.90;4.70;;;;;;;14.40;97.78;101833.34;6083435;23;20026;-76
2022/08/29 06:10:33;;;;;;;5.13;4.93;;;;;;;14.41;96.59;101819.19;6028371;23;20043;-76
2022/08/29 06:12:59;;;;;;;5.22;4.93;;;;;;;14.18;95.26;101749.91;6084398;23;20024;-75
2022/08/29 06:15:28;;;;;;;6.28;5.88;;;;;;;13.89;93.64;101675.72;6048387;23;20615;-75
2022/08/29 06:17:54;;;;;;;5.68;5.35;;;;;;;14.35;93.01;101688.31;6027243;23;20014;-76
2022/08/29 06:20:21;;;;;;;6.63;6.13;;;;;;;14.89;91.02;101775.34;6056924;23;20105;-76
2022/08/29 06:22:48;;;;;;;5.13;4.82;;;;;;;15.10;90.38;101828.88;6087539;23;20082;-76
2022/08/29 06:25:14;;;;;;;5.70;5.43;;;;;;;15.20;92.20;101829.25;6024629;23;20026;-76
2022/08/29 06:28:01;;;;;;;5.85;5.45;;;;;;;15.15;91.32;101806.56;6077006;23;20396;-76
2022/08/29 06:30:31;;;;;;;6.40;5.82;;;;;;;15.18;91.47;101807.34;6055526;23;20097;-76
2022/08/29 06:32:58;;;;;;;8.00;5.32;;;;;;;15.09;91.54;101785.72;6026682;23;20015;-76
2022/08/29 06:35:25;;;;;;;7.00;6.50;;;;;;;14.88;89.41;101756.00;6082654;23;20654;-76
2022/08/29 06:37:51;;;;;;;5.68;5.38;;;;;;;14.85;88.13;101779.94;6025472;23;20018;-76
2022/08/29 06:40:18;;;;;;;6.43;6.05;;;;;;;14.85;88.06;101798.44;6084023;23;20056;-76
2022/08/29 06:42:46;;;;;;;5.28;4.93;;;;;;;14.76;88.40;101797.16;6026688;23;20015;-76
2022/08/29 06:45:12;;;;;;;5.90;5.53;;;;;;;14.90;88.50;101845.78;6085201;23;20506;-76
2022/08/29 06:47:38;;;;;;;5.65;5.25;;;;;;;14.60;88.77;101803.31;6029520;23;20010;-76
2022/08/29 06:50:05;;;;;;;6.07;5.68;;;;;;;14.38;88.96;101759.47;6073066;23;20018;-76
2022/08/29 06:52:32;;;;;;;6.05;5.57;;;;;;;14.59;88.46;101791.03;6042623;23;20297;-76
2022/08/29 06:55:01;;;;;;;5.90;5.50;;;;;;;14.28;87.83;101730.03;6070282;23;20085;-76
2022/08/29 06:57:27;;;;;;;6.72;6.28;;;;;;;15.03;89.10;101849.47;6025342;23;20053;-76
2022/08/29 06:59:54;;;;;;;5.53;5.22;;;;;;;14.85;88.15;101773.81;6071222;23;20834;-76
2022/08/29 07:02:20;;;;;;;6.93;6.43;;;;;;;14.36;86.56;101697.97;6033558;23;20014;-76
2022/08/29 07:04:47;;;;;;;5.57;5.22;;;;;;;15.00;87.11;101767.72;6014115;23;20026;-76
2022/08/29 07:07:13;;;;;;;12.00;6.15;;;;;;;14.88;85.94;101726.09;6062835;23;20033;-75
2022/08/29 07:09:39;;;;;;;5.47;5.07;;;;;;;15.85;84.67;101838.03;6028578;23;20408;-75
2022/08/29 07:12:06;;;;;;;6.00;5.60;;;;;;;15.84;83.74;101820.44;6079231;23;20081;-76
2022/08/29 07:14:32;;;;;;;5.78;5.32;;;;;;;15.83;83.19;101815.22;6033396;23;20036;-76
2022/08/29 07:16:59;;;;;;;5.40;5.00;;;;;;;15.84;82.84;101796.63;6004643;23;20737;-75
2022/08/29 07:19:26;;;;;;;11.32;6.45;;;;;;;15.95;82.94;101825.97;6075488;23;20026;-75
2022/08/29 07:21:53;;;;;;;6.63;5.18;;;;;;;16.11;82.27;101807.41;6020738;23;20023;-75
2022/08/29 07:24:23;;;;;;;6.47;6.07;;;;;;;16.38;80.68;101840.31;6077741;23;20030;-76
2022/08/29 07:26:50;;;;;;;5.80;5.40;;;;;;;16.53;79.49;101842.94;6031110;23;20082;-76
2022/08/29 07:29:19;;;;;;;6.45;6.05;;;;;;;16.59;79.47;101847.03;6047575;23;20512;-77
2022/08/29 07:31:47;;;;;;;6.82;5.90;;;;;;;16.57;78.63;101817.09;6011994;23;20634;-76
2022/08/29 07:34:14;;;;;;;6.03;5.63;;;;;;;16.90;77.38;101832.81;6083358;23;20028;-76
2022/08/29 07:36:41;;;;;;;6.97;5.50;;;;;;;16.87;77.39;101819.75;6029110;23;20085;-75
2022/08/29 07:39:12;;;;;;;7.78;5.38;;;;;;;16.81;77.01;101827.19;6064863;23;20467;-76
2022/08/29 07:41:40;;;;;;;5.80;5.30;;;;;;;16.60;77.02;101750.69;6029905;23;20037;-76
2022/08/29 07:44:07;;;;;;;5.53;5.22;;;;;;;16.71;76.06;101739.41;6023160;23;20019;-76
2022/08/29 07:46:34;;;;;;;6.00;5.50;;;;;;;17.03;75.52;101773.72;6062290;23;20061;-76
2022/08/29 07:49:01;;;;;;;7.35;5.47;;;;;;;17.21;74.96;101822.97;6016742;23;20026;-76
2022/08/29 07:51:27;;;;;;;6.93;6.53;;;;;;;17.46;74.34;101818.78;6053558;23;20037;-76
2022/08/29 07:53:55;;;;;;;5.85;5.15;;;;;;;16.90;73.62;101712.66;6026156;23;20031;-76
2022/08/29 07:56:28;;;;;;;6.53;6.10;;;;;;;17.14;73.75;101750.03;6064606;23;20030;-76
2022/08/29 07:59:00;;;;;;;5.85;5.45;;;;;;;17.40;73.21;101789.97;6049273;23;20633;-76
2022/08/29 08:01:26;;;;;;;7.22;6.68;;;;;;;17.32;73.05;101719.69;6058547;23;20375;-76
2022/08/29 08:03:54;;;;;;;5.80;5.50;;;;;;;18.05;71.50;101821.22;6025819;23;20080;-76
2022/08/29 08:06:25;;;;;;;6.47;6.18;;;;;;;18.29;70.41;101805.44;6076878;23;20014;-77
2022/08/29 08:08:53;;;;;;;6.13;5.47;;;;;;;18.13;68.85;101724.09;6043750;23;20548;-76
2022/08/29 08:11:20;;;;;;;9.52;6.40;;;;;;;18.36;67.64;101750.06;6084291;23;21127;-75
2022/08/29 08:13:48;;;;;;;5.47;5.18;;;;;;;19.04;67.40;101810.97;6028448;23;20015;-76
2022/08/29 08:16:17;;;;;;;6.65;6.25;;;;;;;18.95;66.47;101800.97;6055649;23;20028;-76
2022/08/29 08:18:44;;;;;;;5.65;5.28;;;;;;;19.11;67.45;101812.22;6038153;23;20089;-76
2022/08/29 08:21:11;;;;;;;5.75;5.25;;;;;;;18.62;66.53;101717.25;6053510;23;20036;-75
2022/08/29 08:23:39;;;;;;;5.82;5.32;;;;;;;19.26;66.21;101806.75;6050118;23;20986;-76
2022/08/29 08:26:06;;;;;;;5.93;5.53;;;;;;;18.33;66.26;101671.41;6089060;23;20028;-76
2022/08/29 08:28:33;;;;;;;6.32;6.03;;;;;;;19.13;65.11;101767.72;6031137;23;20055;-76
2022/08/29 08:31:00;;;;;;;5.88;5.47;;;;;;;19.32;64.17;101761.06;6070306;23;20030;-76
2022/08/29 08:33:33;;;;;;;5.47;5.17;;;;;;;19.39;63.05;101807.59;6022340;23;20040;-76
2022/08/29 08:36:02;;;;;;;5.63;5.30;;;;;;;19.37;63.19;101804.19;6061412;23;20050;-76
2022/08/29 08:38:30;;;;;;;6.40;6.00;;;;;;;19.07;62.24;101746.88;6007083;23;20043;-75
2022/08/29 08:41:21;;;;;;;5.88;5.30;;;;;;;19.69;63.13;101793.88;6058225;23;20021;-76
2022/08/29 08:43:55;;;;;;;5.68;5.35;;;;;;;19.35;60.62;101811.44;6051099;23;20077;-76
2022/08/29 08:46:35;;;;;;;7.00;6.60;;;;;;;19.18;60.79;101814.44;6061604;23;20455;-76
2022/08/29 08:49:06;;;;;;;5.47;5.18;;;;;;;19.09;60.69;101782.22;6017787;23;20025;-76
2022/08/29 08:51:36;;;;;;;6.35;5.95;;;;;;;18.29;61.13;101607.00;6071830;23;20032;-77
2022/08/29 08:54:07;;;;;;;5.47;5.18;;;;;;;19.47;61.19;101805.22;6054404;23;20110;-76
2022/08/29 08:56:40;;;;;;;5.53;5.22;;;;;;;18.93;60.84;101707.97;6060115;23;20105;-76
2022/08/29 08:59:15;;;;;;;6.00;5.57;;;;;;;19.45;60.46;101777.88;6047989;23;20038;-75
2022/08/29 09:02:00;;;;;;;5.72;5.43;;;;;;;19.50;60.16;101738.47;6061614;23;20029;-76
2022/08/29 09:05:00;;;;;;;6.20;5.78;;;;;;;19.71;60.14;101796.47;6034576;23;20259;-76
2022/08/29 09:07:48;;;;;;;6.53;6.22;;;;;;;19.31;60.76;101804.63;5994581;23;20029;-76
2022/08/29 09:10:44;;;;;;;6.72;6.40;;;;;;;19.23;60.77;101730.66;6042324;23;20519;-76
2022/08/29 09:13:38;;;;;;;5.88;5.50;;;;;;;20.06;58.71;101808.97;6071393;23;20036;-76
2022/08/29 09:16:15;;;;;;;5.35;5.13;;;;;;;20.11;58.02;101742.84;6056923;23;20596;-76
2022/08/29 09:18:43;;;;;;;5.90;5.50;;;;;;;19.91;58.92;101811.81;6066286;23;20420;-76
2022/08/29 09:21:21;;;;;;;6.80;6.40;;;;;;;20.12;58.16;101804.03;6041485;23;20698;-77
2022/08/29 09:24:12;;;;;;;5.65;5.25;;;;;;;20.19;58.67;101767.09;6089589;23;20013;-77
2022/08/29 09:26:39;;;;;;;5.32;5.03;;;;;;;20.40;58.83;101795.75;6019737;23;20097;-76
2022/08/29 09:29:08;;;;;;;5.50;5.20;;;;;;;20.06;57.72;101732.53;6011157;23;20027;-77
2022/08/29 09:31:36;;;;;;;6.15;5.63;;;;;;;20.05;58.40;101728.19;6028709;23;20671;-76
2022/08/29 09:34:12;;;;;;;5.47;5.18;;;;;;;19.58;57.74;101611.88;6085583;23;20021;-76
2022/08/29 09:36:47;;;;;;;5.82;5.32;;;;;;;20.74;56.68;101793.19;6015079;23;20030;-76
2022/08/29 09:39:20;;;;;;;6.22;5.93;;;;;;;20.73;56.71;101797.69;6062013;23;20057;-74
2022/08/29 09:41:51;;;;;;;5.68;5.30;;;;;;;20.50;56.74;101772.75;6038886;23;20101;-75
2022/08/29 09:44:39;;;;;;;6.95;6.55;;;;;;;20.84;56.87;101795.00;6072954;23;20036;-77
2022/08/29 09:47:13;;;;;;;5.65;5.18;;;;;;;21.00;55.89;101733.28;6042102;23;20560;-75
2022/08/29 09:49:58;;;;;;;6.00;5.60;;;;;;;21.23;53.61;101784.00;6021120;23;20015;-75
2022/08/29 09:52:25;;;;;;;7.15;6.65;;;;;;;20.82;55.30;101774.75;6033454;23;20181;-75
2022/08/29 09:54:51;;;;;;;5.90;5.60;;;;;;;20.13;55.06;101715.13;6071207;23;20014;-75
2022/08/29 09:57:18;;;;;;;7.25;6.68;;;;;;;20.85;54.67;101787.88;6033589;23;20078;-75
2022/08/29 09:59:48;;;;;;;6.18;5.57;;;;;;;21.08;54.03;101781.53;6078153;23;20028;-76
2022/08/29 10:02:36;;;;;;;6.68;5.97;;;;;;;20.95;53.02;101747.94;6054961;23;20041;-74
2022/08/29 10:05:08;;;;;;;8.15;5.60;;;;;;;21.19;54.05;101778.03;6081642;23;20166;-75
2022/08/29 10:07:47;;;;;;;5.80;5.50;;;;;;;21.75;52.22;101769.09;6039947;23;20002;-74
2022/08/29 10:10:23;;;;;;;6.22;5.90;;;;;;;21.86;51.84;101749.47;6069822;23;21659;-74
2022/08/29 10:12:54;;;;;;;5.97;5.57;;;;;;;21.61;51.75;101766.69;6026520;23;20081;-75
2022/08/29 10:15:38;;;;;;;6.93;6.57;;;;;;;21.45;54.22;101733.25;6080029;23;20054;-74
2022/08/29 10:18:26;;;;;;;6.45;6.05;;;;;;;21.42;52.98;101746.78;6032693;23;20023;-76
2022/08/29 10:21:01;;;;;;;6.18;5.88;;;;;;;20.76;54.16;101784.09;6073037;23;20642;-77
2022/08/29 10:23:33;;;;;;;6.18;5.82;;;;;;;21.02;53.90;101778.53;6032306;23;20402;-75
2022/08/29 10:26:08;;;;;;;5.25;5.05;;;;;;;21.38;52.42;101771.22;6083703;23;20039;-75
2022/08/29 10:28:47;;;;;;;6.25;5.85;;;;;;;21.35;51.49;101772.31;6037280;23;20020;-74
2022/08/29 10:31:41;;;;;;;8.20;7.55;;;;;;;21.10;51.72;101747.56;6084409;23;20063;-74
2022/08/29 10:34:25;;;;;;;5.90;5.50;;;;;;;20.98;51.11;101697.84;6057101;23;20022;-75
2022/08/29 10:37:00;;;;;;;6.53;6.10;;;;;;;20.99;52.33;101744.94;6083324;23;20024;-74
2022/08/29 10:39:44;;;;;;;6.72;6.35;;;;;;;21.55;50.06;101737.81;6019660;23;20089;-75
2022/08/29 10:42:18;;;;;;;6.25;5.85;;;;;;;21.51;50.35;101702.50;6085894;23;20017;-73
2022/08/29 10:45:01;;;;;;;6.15;5.78;;;;;;;21.88;50.03;101756.38;6052759;23;20034;-74
2022/08/29 10:47:50;;;;;;;6.60;6.20;;;;;;;21.98;49.66;101744.94;6080453;23;20042;-75
2022/08/29 10:50:28;;;;;;;7.20;6.80;;;;;;;21.48;50.42;101692.06;5957917;23;20023;-74
2022/08/29 10:53:37;;;;;;;7.05;5.70;;;;;;;22.06;49.29;101711.22;6077670;23;20041;-74
2022/08/29 10:56:23;;;;;;;5.95;5.60;;;;;;;21.75;49.32;101634.63;6054943;23;20033;-75
2022/08/29 10:59:02;;;;;;;6.00;5.70;;;;;;;23.08;48.05;101727.41;6084246;23;20018;-75
2022/08/29 11:01:40;;;;;;;6.32;5.90;;;;;;;22.66;48.23;101722.16;6027321;23;20046;-75
2022/08/29 11:04:16;;;;;;;6.00;5.60;;;;;;;23.00;49.00;101726.38;6077905;23;20017;-76
2022/08/29 11:06:50;;;;;;;5.90;5.55;;;;;;;22.32;48.28;101675.25;5999028;23;20034;-75
2022/08/29 11:09:29;;;;;;;6.55;6.15;;;;;;;21.64;48.59;101552.72;6082653;23;20022;-75
2022/08/29 11:12:06;;;;;;;5.90;5.60;;;;;;;22.29;47.38;101709.31;6055755;23;20088;-75
2022/08/29 11:14:44;;;;;;;6.20;5.70;;;;;;;22.50;47.48;101728.00;6077009;23;20360;-75
2022/08/29 11:17:13;;;;;;;5.85;5.47;;;;;;;22.43;46.91;101664.44;6020771;23;20027;-75
2022/08/29 11:19:56;;;;;;;6.00;5.60;;;;;;;22.70;47.05;101696.81;6078369;23;20021;-76
2022/08/29 11:22:34;;;;;;;6.75;6.45;;;;;;;22.37;47.11;101662.31;6044262;23;20033;-75
2022/08/29 11:25:21;;;;;;;6.10;5.75;;;;;;;22.25;48.43;101685.63;6084897;23;20018;-75
2022/08/29 11:28:02;;;;;;;5.85;5.40;;;;;;;22.57;47.63;101711.41;6049177;23;20014;-76
2022/08/29 11:30:57;;;;;;;6.22;5.93;;;;;;;22.47;48.43;101712.22;6079888;23;20042;-75
2022/08/29 11:33:37;;;;;;;7.10;6.70;;;;;;;22.27;47.39;101639.06;6045107;23;20033;-76
2022/08/29 11:36:27;;;;;;;6.05;5.50;;;;;;;23.12;46.23;101684.31;6029411;23;20515;-75
2022/08/29 11:39:10;;;;;;;6.07;5.72;;;;;;;23.61;46.43;101653.84;6078502;23;20010;-75
2022/08/29 11:41:47;;;;;;;6.40;5.88;;;;;;;24.20;44.21;101678.78;6032775;23;20101;-75